sensor_id;sensor_type;location;lat;lon;timestamp;pressure;altitude;pressure_sealevel;temperature;humidity
44988;BME280;35735;52.226;21.254;2023-04-25T00:02:38;98983.12;;;13.21;93.60
44988;BME280;35735;52.226;21.254;2023-04-25T00:07:38;98987.84;;;13.14;93.88
44988;BME280;35735;52.226;21.254;2023-04-25T00:12:39;98981.81;;;13.06;94.13
44988;BME280;35735;52.226;21.254;2023-04-25T00:17:40;98992.88;;;13.00;94.38
44988;BME280;35735;52.226;21.254;2023-04-25T00:22:40;98986.13;;;12.85;94.69
44988;BME280;35735;52.226;21.254;2023-04-25T00:27:41;98991.03;;;12.72;95.18
44988;BME280;35735;52.226;21.254;2023-04-25T00:32:42;98996.59;;;12.68;95.78
44988;BME280;35735;52.226;21.254;2023-04-25T00:37:42;99006.72;;;12.61;96.12
44988;BME280;35735;52.226;21.254;2023-04-25T00:42:43;98990.69;;;12.55;96.53
44988;BME280;35735;52.226;21.254;2023-04-25T00:47:45;98994.75;;;12.40;96.86
44988;BME280;35735;52.226;21.254;2023-04-25T00:52:46;98994.03;;;12.33;97.53
44988;BME280;35735;52.226;21.254;2023-04-25T00:57:47;98991.50;;;12.27;97.86
44988;BME280;35735;52.226;21.254;2023-04-25T01:02:48;98986.41;;;12.18;98.25
44988;BME280;35735;52.226;21.254;2023-04-25T01:07:48;98984.03;;;12.05;98.44
44988;BME280;35735;52.226;21.254;2023-04-25T01:12:49;98989.72;;;11.96;98.55
44988;BME280;35735;52.226;21.254;2023-04-25T01:17:49;98990.97;;;11.83;98.80
44988;BME280;35735;52.226;21.254;2023-04-25T01:22:51;98995.78;;;11.72;98.99
44988;BME280;35735;52.226;21.254;2023-04-25T01:27:52;98990.53;;;11.65;99.40
44988;BME280;35735;52.226;21.254;2023-04-25T01:32:56;98998.03;;;11.54;99.75
44988;BME280;35735;52.226;21.254;2023-04-25T01:37:57;98989.50;;;11.37;100.00
44988;BME280;35735;52.226;21.254;2023-04-25T01:42:58;98973.63;;;11.24;100.00
44988;BME280;35735;52.226;21.254;2023-04-25T01:47:58;98981.94;;;11.15;100.00
44988;BME280;35735;52.226;21.254;2023-04-25T01:52:59;98974.22;;;11.00;100.00
44988;BME280;35735;52.226;21.254;2023-04-25T01:58:02;98975.25;;;10.94;100.00
44988;BME280;35735;52.226;21.254;2023-04-25T02:03:03;98972.59;;;10.92;100.00
44988;BME280;35735;52.226;21.254;2023-04-25T02:08:08;98968.09;;;10.93;100.00
44988;BME280;35735;52.226;21.254;2023-04-25T02:13:09;98964.50;;;10.92;100.00
44988;BME280;35735;52.226;21.254;2023-04-25T02:18:10;98968.94;;;10.95;100.00
44988;BME280;35735;52.226;21.254;2023-04-25T02:23:10;98970.75;;;10.94;100.00
44988;BME280;35735;52.226;21.254;2023-04-25T02:28:11;98963.44;;;11.00;100.00
44988;BME280;35735;52.226;21.254;2023-04-25T02:33:12;98972.34;;;11.03;100.00
44988;BME280;35735;52.226;21.254;2023-04-25T02:38:12;98963.25;;;11.06;100.00
44988;BME280;35735;52.226;21.254;2023-04-25T02:43:13;98957.84;;;11.06;100.00
44988;BME280;35735;52.226;21.254;2023-04-25T02:48:13;98968.66;;;11.06;100.00
44988;BME280;35735;52.226;21.254;2023-04-25T02:53:14;98968.91;;;10.97;100.00
44988;BME280;35735;52.226;21.254;2023-04-25T02:58:14;98967.28;;;10.89;100.00
44988;BME280;35735;52.226;21.254;2023-04-25T03:03:15;98971.81;;;10.87;100.00
44988;BME280;35735;52.226;21.254;2023-04-25T03:08:16;98967.44;;;10.83;100.00
44988;BME280;35735;52.226;21.254;2023-04-25T03:13:17;98969.50;;;10.72;100.00
44988;BME280;35735;52.226;21.254;2023-04-25T03:18:17;98967.62;;;10.74;100.00
44988;BME280;35735;52.226;21.254;2023-04-25T03:23:18;98969.63;;;10.66;100.00
44988;BME280;35735;52.226;21.254;2023-04-25T03:28:18;98970.59;;;10.63;100.00
44988;BME280;35735;52.226;21.254;2023-04-25T03:33:19;98965.91;;;10.71;100.00
44988;BME280;35735;52.226;21.254;2023-04-25T03:38:20;98973.00;;;10.75;100.00
44988;BME280;35735;52.226;21.254;2023-04-25T03:43:20;98965.78;;;10.78;100.00
44988;BME280;35735;52.226;21.254;2023-04-25T03:48:21;98973.91;;;10.76;100.00
44988;BME280;35735;52.226;21.254;2023-04-25T03:53:21;98982.00;;;10.76;100.00
44988;BME280;35735;52.226;21.254;2023-04-25T03:58:22;98978.00;;;10.92;100.00
44988;BME280;35735;52.226;21.254;2023-04-25T04:03:22;98986.66;;;11.07;100.00
44988;BME280;35735;52.226;21.254;2023-04-25T04:08:23;98984.31;;;11.27;100.00
44988;BME280;35735;52.226;21.254;2023-04-25T04:13:26;98991.28;;;11.38;100.00
44988;BME280;35735;52.226;21.254;2023-04-25T04:18:27;98989.16;;;11.49;100.00
44988;BME280;35735;52.226;21.254;2023-04-25T04:23:27;98993.38;;;11.59;100.00
44988;BME280;35735;52.226;21.254;2023-04-25T04:28:28;99002.84;;;11.76;100.00
44988;BME280;35735;52.226;21.254;2023-04-25T04:33:28;99006.31;;;11.81;100.00
44988;BME280;35735;52.226;21.254;2023-04-25T04:38:29;99003.50;;;11.85;100.00
44988;BME280;35735;52.226;21.254;2023-04-25T04:43:30;99003.37;;;11.92;100.00
44988;BME280;35735;52.226;21.254;2023-04-25T04:48:31;99010.22;;;12.03;100.00
44988;BME280;35735;52.226;21.254;2023-04-25T04:53:32;99009.19;;;12.08;100.00
44988;BME280;35735;52.226;21.254;2023-04-25T04:58:33;99008.31;;;12.07;100.00
44988;BME280;35735;52.226;21.254;2023-04-25T05:03:33;99016.47;;;12.05;100.00
44988;BME280;35735;52.226;21.254;2023-04-25T05:08:34;99014.53;;;12.11;100.00
44988;BME280;35735;52.226;21.254;2023-04-25T05:13:35;99009.13;;;12.11;100.00
44988;BME280;35735;52.226;21.254;2023-04-25T05:18:35;99000.97;;;12.12;100.00
44988;BME280;35735;52.226;21.254;2023-04-25T05:23:36;99004.69;;;12.08;100.00
44988;BME280;35735;52.226;21.254;2023-04-25T05:28:36;99004.41;;;12.17;100.00
44988;BME280;35735;52.226;21.254;2023-04-25T05:33:37;99006.91;;;12.25;100.00
44988;BME280;35735;52.226;21.254;2023-04-25T05:38:37;99002.06;;;12.36;100.00
44988;BME280;35735;52.226;21.254;2023-04-25T05:43:38;99008.31;;;12.38;100.00
44988;BME280;35735;52.226;21.254;2023-04-25T05:48:39;99012.56;;;12.47;100.00
44988;BME280;35735;52.226;21.254;2023-04-25T05:53:39;99017.75;;;12.55;100.00
44988;BME280;35735;52.226;21.254;2023-04-25T05:58:40;99014.09;;;12.56;100.00
44988;BME280;35735;52.226;21.254;2023-04-25T06:03:40;99014.06;;;12.57;100.00
44988;BME280;35735;52.226;21.254;2023-04-25T06:08:41;99013.09;;;12.60;100.00
44988;BME280;35735;52.226;21.254;2023-04-25T06:13:41;99015.50;;;12.69;100.00
44988;BME280;35735;52.226;21.254;2023-04-25T06:18:42;99015.44;;;12.71;100.00
44988;BME280;35735;52.226;21.254;2023-04-25T06:23:43;99026.31;;;12.69;100.00
44988;BME280;35735;52.226;21.254;2023-04-25T06:28:43;99023.69;;;12.66;100.00
44988;BME280;35735;52.226;21.254;2023-04-25T06:33:44;99029.09;;;12.66;100.00
44988;BME280;35735;52.226;21.254;2023-04-25T06:38:44;99032.94;;;12.59;100.00
44988;BME280;35735;52.226;21.254;2023-04-25T06:43:45;99046.47;;;12.59;100.00
44988;BME280;35735;52.226;21.254;2023-04-25T06:48:45;99058.47;;;12.50;100.00
44988;BME280;35735;52.226;21.254;2023-04-25T06:53:46;99055.28;;;12.36;100.00
44988;BME280;35735;52.226;21.254;2023-04-25T06:58:46;99053.91;;;12.21;100.00
44988;BME280;35735;52.226;21.254;2023-04-25T07:03:47;99050.34;;;12.19;100.00
44988;BME280;35735;52.226;21.254;2023-04-25T07:08:48;99060.38;;;12.15;100.00
44988;BME280;35735;52.226;21.254;2023-04-25T07:13:48;99063.47;;;12.01;100.00
44988;BME280;35735;52.226;21.254;2023-04-25T07:18:49;99061.78;;;11.97;100.00
44988;BME280;35735;52.226;21.254;2023-04-25T07:23:49;99057.28;;;11.98;100.00
44988;BME280;35735;52.226;21.254;2023-04-25T07:28:50;99058.03;;;12.03;100.00
44988;BME280;35735;52.226;21.254;2023-04-25T07:33:50;99061.53;;;12.07;100.00
44988;BME280;35735;52.226;21.254;2023-04-25T07:38:51;99054.34;;;12.05;100.00
44988;BME280;35735;52.226;21.254;2023-04-25T07:43:51;99059.75;;;12.05;100.00
44988;BME280;35735;52.226;21.254;2023-04-25T07:48:52;99071.41;;;12.08;100.00
44988;BME280;35735;52.226;21.254;2023-04-25T07:53:52;99075.81;;;12.12;100.00
44988;BME280;35735;52.226;21.254;2023-04-25T07:58:53;99074.97;;;12.10;100.00
44988;BME280;35735;52.226;21.254;2023-04-25T08:03:53;99078.69;;;12.05;100.00
44988;BME280;35735;52.226;21.254;2023-04-25T08:08:54;99094.59;;;12.18;100.00
44988;BME280;35735;52.226;21.254;2023-04-25T08:13:55;99081.66;;;12.28;100.00
44988;BME280;35735;52.226;21.254;2023-04-25T08:18:55;99083.44;;;12.29;100.00
44988;BME280;35735;52.226;21.254;2023-04-25T08:23:56;99090.66;;;12.30;100.00
44988;BME280;35735;52.226;21.254;2023-04-25T08:28:56;99096.56;;;12.42;100.00
44988;BME280;35735;52.226;21.254;2023-04-25T08:33:57;99089.13;;;12.51;100.00
44988;BME280;35735;52.226;21.254;2023-04-25T08:38:58;99091.81;;;12.51;100.00
44988;BME280;35735;52.226;21.254;2023-04-25T08:43:59;99089.03;;;12.54;100.00
44988;BME280;35735;52.226;21.254;2023-04-25T08:49:03;99098.66;;;12.64;100.00
44988;BME280;35735;52.226;21.254;2023-04-25T08:54:10;99102.31;;;12.63;100.00
44988;BME280;35735;52.226;21.254;2023-04-25T08:59:12;99107.63;;;12.66;100.00
44988;BME280;35735;52.226;21.254;2023-04-25T09:04:13;99113.81;;;12.71;100.00
44988;BME280;35735;52.226;21.254;2023-04-25T09:09:13;99117.66;;;12.63;100.00
44988;BME280;35735;52.226;21.254;2023-04-25T09:14:19;99121.69;;;12.48;100.00
44988;BME280;35735;52.226;21.254;2023-04-25T09:19:31;99133.66;;;12.39;100.00
44988;BME280;35735;52.226;21.254;2023-04-25T09:29:42;99153.06;;;12.22;100.00
44988;BME280;35735;52.226;21.254;2023-04-25T09:34:51;99158.56;;;12.19;100.00
44988;BME280;35735;52.226;21.254;2023-04-25T09:39:56;99168.53;;;12.17;100.00
44988;BME280;35735;52.226;21.254;2023-04-25T09:44:58;99166.06;;;12.08;100.00
44988;BME280;35735;52.226;21.254;2023-04-25T09:49:59;99168.91;;;12.03;100.00
44988;BME280;35735;52.226;21.254;2023-04-25T09:54:59;99168.75;;;12.08;100.00
44988;BME280;35735;52.226;21.254;2023-04-25T10:00:00;99164.38;;;12.03;100.00
44988;BME280;35735;52.226;21.254;2023-04-25T10:05:02;99168.25;;;11.93;100.00
44988;BME280;35735;52.226;21.254;2023-04-25T10:10:06;99164.72;;;11.91;100.00
44988;BME280;35735;52.226;21.254;2023-04-25T10:15:08;99177.31;;;11.89;100.00
44988;BME280;35735;52.226;21.254;2023-04-25T10:20:09;99179.97;;;11.91;100.00
44988;BME280;35735;52.226;21.254;2023-04-25T10:25:10;99182.69;;;11.92;100.00
44988;BME280;35735;52.226;21.254;2023-04-25T10:30:14;99186.44;;;11.85;100.00
44988;BME280;35735;52.226;21.254;2023-04-25T10:35:29;99183.03;;;11.77;100.00
44988;BME280;35735;52.226;21.254;2023-04-25T10:40:30;99190.34;;;11.73;100.00
44988;BME280;35735;52.226;21.254;2023-04-25T10:45:51;99188.59;;;11.71;100.00
44988;BME280;35735;52.226;21.254;2023-04-25T10:51:11;99189.31;;;11.77;100.00
44988;BME280;35735;52.226;21.254;2023-04-25T10:56:38;99187.59;;;11.75;100.00
44988;BME280;35735;52.226;21.254;2023-04-25T11:01:42;99182.97;;;11.80;100.00
44988;BME280;35735;52.226;21.254;2023-04-25T11:12:02;99183.94;;;11.76;100.00
44988;BME280;35735;52.226;21.254;2023-04-25T11:17:03;99192.09;;;11.74;100.00
44988;BME280;35735;52.226;21.254;2023-04-25T11:22:04;99187.88;;;11.62;100.00
44988;BME280;35735;52.226;21.254;2023-04-25T11:27:05;99199.69;;;11.58;100.00
44988;BME280;35735;52.226;21.254;2023-04-25T11:32:05;99191.09;;;11.41;100.00
44988;BME280;35735;52.226;21.254;2023-04-25T11:37:06;99196.59;;;11.38;100.00
44988;BME280;35735;52.226;21.254;2023-04-25T11:42:06;99188.50;;;11.36;100.00
44988;BME280;35735;52.226;21.254;2023-04-25T11:47:07;99185.78;;;11.38;100.00
44988;BME280;35735;52.226;21.254;2023-04-25T11:52:08;99193.81;;;11.39;100.00
44988;BME280;35735;52.226;21.254;2023-04-25T11:57:08;99188.53;;;11.35;100.00
44988;BME280;35735;52.226;21.254;2023-04-25T12:02:09;99200.19;;;11.37;100.00
44988;BME280;35735;52.226;21.254;2023-04-25T12:07:09;99190.19;;;11.40;100.00
44988;BME280;35735;52.226;21.254;2023-04-25T12:12:10;99193.75;;;11.42;100.00
44988;BME280;35735;52.226;21.254;2023-04-25T12:17:10;99201.81;;;11.44;100.00
44988;BME280;35735;52.226;21.254;2023-04-25T12:22:22;99189.09;;;11.49;100.00
44988;BME280;35735;52.226;21.254;2023-04-25T12:27:25;99191.25;;;11.35;100.00
44988;BME280;35735;52.226;21.254;2023-04-25T12:32:25;99183.06;;;11.38;100.00
44988;BME280;35735;52.226;21.254;2023-04-25T12:37:26;99183.88;;;11.41;100.00
44988;BME280;35735;52.226;21.254;2023-04-25T12:42:26;99178.59;;;11.37;100.00
44988;BME280;35735;52.226;21.254;2023-04-25T12:47:27;99179.31;;;11.45;100.00
44988;BME280;35735;52.226;21.254;2023-04-25T12:52:27;99178.28;;;11.49;100.00
44988;BME280;35735;52.226;21.254;2023-04-25T12:57:28;99170.97;;;11.54;100.00
44988;BME280;35735;52.226;21.254;2023-04-25T13:02:29;99175.47;;;11.54;100.00
44988;BME280;35735;52.226;21.254;2023-04-25T13:07:29;99174.53;;;11.56;100.00
44988;BME280;35735;52.226;21.254;2023-04-25T13:12:30;99168.00;;;11.65;100.00
44988;BME280;35735;52.226;21.254;2023-04-25T13:17:30;99165.03;;;11.76;100.00
44988;BME280;35735;52.226;21.254;2023-04-25T13:22:31;99155.94;;;11.80;100.00
44988;BME280;35735;52.226;21.254;2023-04-25T13:27:32;99153.06;;;11.86;100.00
44988;BME280;35735;52.226;21.254;2023-04-25T13:32:37;99163.84;;;11.87;100.00
44988;BME280;35735;52.226;21.254;2023-04-25T13:37:38;99164.16;;;11.75;100.00
44988;BME280;35735;52.226;21.254;2023-04-25T13:42:39;99153.53;;;11.67;100.00
44988;BME280;35735;52.226;21.254;2023-04-25T13:47:40;99160.75;;;11.67;100.00
44988;BME280;35735;52.226;21.254;2023-04-25T13:52:40;99162.75;;;11.59;100.00
44988;BME280;35735;52.226;21.254;2023-04-25T13:57:41;99163.78;;;11.53;100.00
44988;BME280;35735;52.226;21.254;2023-04-25T14:02:41;99166.41;;;11.58;100.00
44988;BME280;35735;52.226;21.254;2023-04-25T14:07:42;99161.19;;;11.48;100.00
44988;BME280;35735;52.226;21.254;2023-04-25T14:12:43;99164.00;;;11.44;100.00
44988;BME280;35735;52.226;21.254;2023-04-25T14:17:43;99160.38;;;11.45;100.00
44988;BME280;35735;52.226;21.254;2023-04-25T14:22:44;99157.63;;;11.48;100.00
44988;BME280;35735;52.226;21.254;2023-04-25T14:27:44;99170.41;;;11.40;99.83
44988;BME280;35735;52.226;21.254;2023-04-25T14:32:45;99168.72;;;11.34;99.52
44988;BME280;35735;52.226;21.254;2023-04-25T14:37:45;99167.78;;;11.37;99.82
44988;BME280;35735;52.226;21.254;2023-04-25T14:42:46;99180.22;;;11.44;99.98
44988;BME280;35735;52.226;21.254;2023-04-25T14:47:47;99172.19;;;11.39;100.00
44988;BME280;35735;52.226;21.254;2023-04-25T14:52:47;99175.09;;;11.31;100.00
44988;BME280;35735;52.226;21.254;2023-04-25T14:57:48;99176.03;;;11.30;100.00
44988;BME280;35735;52.226;21.254;2023-04-25T15:02:49;99170.91;;;11.18;100.00
44988;BME280;35735;52.226;21.254;2023-04-25T15:07:49;99176.41;;;11.13;100.00
44988;BME280;35735;52.226;21.254;2023-04-25T15:12:50;99175.59;;;11.10;100.00
44988;BME280;35735;52.226;21.254;2023-04-25T15:17:50;99171.06;;;11.10;100.00
44988;BME280;35735;52.226;21.254;2023-04-25T15:22:51;99174.69;;;11.11;100.00
44988;BME280;35735;52.226;21.254;2023-04-25T15:27:51;99179.25;;;11.06;100.00
44988;BME280;35735;52.226;21.254;2023-04-25T15:32:52;99175.78;;;11.01;100.00
44988;BME280;35735;52.226;21.254;2023-04-25T15:37:53;99181.25;;;10.98;100.00
44988;BME280;35735;52.226;21.254;2023-04-25T15:42:53;99185.84;;;10.92;100.00
44988;BME280;35735;52.226;21.254;2023-04-25T15:47:56;99180.34;;;10.97;100.00
44988;BME280;35735;52.226;21.254;2023-04-25T15:52:57;99188.50;;;10.94;100.00
44988;BME280;35735;52.226;21.254;2023-04-25T15:57:58;99183.28;;;10.86;100.00
44988;BME280;35735;52.226;21.254;2023-04-25T16:02:58;99188.72;;;10.85;100.00
44988;BME280;35735;52.226;21.254;2023-04-25T16:07:59;99183.34;;;10.83;100.00
44988;BME280;35735;52.226;21.254;2023-04-25T16:12:59;99196.88;;;10.82;100.00
44988;BME280;35735;52.226;21.254;2023-04-25T16:18:00;99190.72;;;10.75;100.00
44988;BME280;35735;52.226;21.254;2023-04-25T16:23:00;99199.03;;;10.64;100.00
44988;BME280;35735;52.226;21.254;2023-04-25T16:28:01;99208.03;;;10.63;100.00
44988;BME280;35735;52.226;21.254;2023-04-25T16:33:01;99197.28;;;10.62;100.00
44988;BME280;35735;52.226;21.254;2023-04-25T16:38:02;99204.56;;;10.58;100.00
44988;BME280;35735;52.226;21.254;2023-04-25T16:43:03;99202.78;;;10.55;100.00
44988;BME280;35735;52.226;21.254;2023-04-25T16:48:03;99200.19;;;10.52;100.00
44988;BME280;35735;52.226;21.254;2023-04-25T16:53:04;99214.56;;;10.51;100.00
44988;BME280;35735;52.226;21.254;2023-04-25T16:58:04;99210.13;;;10.47;100.00
44988;BME280;35735;52.226;21.254;2023-04-25T17:03:05;99211.13;;;10.43;100.00
44988;BME280;35735;52.226;21.254;2023-04-25T17:08:05;99219.28;;;10.40;100.00
44988;BME280;35735;52.226;21.254;2023-04-25T17:13:06;99227.47;;;10.34;100.00
44988;BME280;35735;52.226;21.254;2023-04-25T17:18:07;99225.81;;;10.24;100.00
44988;BME280;35735;52.226;21.254;2023-04-25T17:23:07;99228.56;;;10.20;100.00
44988;BME280;35735;52.226;21.254;2023-04-25T17:28:08;99234.94;;;10.16;100.00
44988;BME280;35735;52.226;21.254;2023-04-25T17:33:08;99238.69;;;10.09;100.00
44988;BME280;35735;52.226;21.254;2023-04-25T17:38:09;99247.72;;;10.05;100.00
44988;BME280;35735;52.226;21.254;2023-04-25T17:43:09;99246.06;;;9.96;100.00
44988;BME280;35735;52.226;21.254;2023-04-25T17:48:10;99258.78;;;9.87;100.00
44988;BME280;35735;52.226;21.254;2023-04-25T17:53:10;99252.59;;;9.81;100.00
44988;BME280;35735;52.226;21.254;2023-04-25T17:58:11;99260.75;;;9.75;100.00
44988;BME280;35735;52.226;21.254;2023-04-25T18:03:12;99262.63;;;9.70;100.00
44988;BME280;35735;52.226;21.254;2023-04-25T18:08:12;99277.06;;;9.66;100.00
44988;BME280;35735;52.226;21.254;2023-04-25T18:13:13;99275.31;;;9.62;100.00
44988;BME280;35735;52.226;21.254;2023-04-25T18:18:13;99278.16;;;9.54;100.00
44988;BME280;35735;52.226;21.254;2023-04-25T18:23:14;99294.41;;;9.45;100.00
44988;BME280;35735;52.226;21.254;2023-04-25T18:28:14;99304.47;;;9.32;100.00
44988;BME280;35735;52.226;21.254;2023-04-25T18:33:15;99318.03;;;9.24;100.00
44988;BME280;35735;52.226;21.254;2023-04-25T18:38:15;99329.78;;;9.19;100.00
44988;BME280;35735;52.226;21.254;2023-04-25T18:43:16;99335.25;;;9.09;100.00
44988;BME280;35735;52.226;21.254;2023-04-25T18:48:17;99337.94;;;9.09;100.00
44988;BME280;35735;52.226;21.254;2023-04-25T18:53:17;99342.53;;;9.01;100.00
44988;BME280;35735;52.226;21.254;2023-04-25T18:58:18;99348.03;;;8.89;100.00
44988;BME280;35735;52.226;21.254;2023-04-25T19:03:20;99356.13;;;8.87;100.00
44988;BME280;35735;52.226;21.254;2023-04-25T19:08:21;99353.50;;;8.81;100.00
44988;BME280;35735;52.226;21.254;2023-04-25T19:13:21;99350.81;;;8.81;100.00
44988;BME280;35735;52.226;21.254;2023-04-25T19:18:23;99355.28;;;8.82;100.00
44988;BME280;35735;52.226;21.254;2023-04-25T19:23:23;99348.09;;;8.81;100.00
44988;BME280;35735;52.226;21.254;2023-04-25T19:28:24;99350.88;;;8.74;100.00
44988;BME280;35735;52.226;21.254;2023-04-25T19:33:25;99359.81;;;8.77;100.00
44988;BME280;35735;52.226;21.254;2023-04-25T19:38:25;99370.59;;;8.77;100.00
44988;BME280;35735;52.226;21.254;2023-04-25T19:43:26;99366.97;;;8.78;100.00
44988;BME280;35735;52.226;21.254;2023-04-25T19:48:26;99369.69;;;8.77;100.00
44988;BME280;35735;52.226;21.254;2023-04-25T19:53:27;99378.66;;;8.76;100.00
44988;BME280;35735;52.226;21.254;2023-04-25T19:58:27;99376.91;;;8.68;100.00
44988;BME280;35735;52.226;21.254;2023-04-25T20:03:28;99368.00;;;8.63;100.00
44988;BME280;35735;52.226;21.254;2023-04-25T20:08:28;99369.81;;;8.61;100.00
44988;BME280;35735;52.226;21.254;2023-04-25T20:13:29;99370.69;;;8.62;100.00
44988;BME280;35735;52.226;21.254;2023-04-25T20:18:30;99367.13;;;8.61;100.00
44988;BME280;35735;52.226;21.254;2023-04-25T20:23:30;99366.22;;;8.65;100.00
44988;BME280;35735;52.226;21.254;2023-04-25T20:28:31;99367.22;;;8.52;100.00
44988;BME280;35735;52.226;21.254;2023-04-25T20:33:31;99369.94;;;8.49;100.00
44988;BME280;35735;52.226;21.254;2023-04-25T20:38:32;99368.13;;;8.51;100.00
44988;BME280;35735;52.226;21.254;2023-04-25T20:43:32;99369.88;;;8.55;100.00
44988;BME280;35735;52.226;21.254;2023-04-25T20:48:33;99368.13;;;8.51;100.00
44988;BME280;35735;52.226;21.254;2023-04-25T20:53:34;99374.34;;;8.56;100.00
44988;BME280;35735;52.226;21.254;2023-04-25T20:58:34;99367.16;;;8.58;100.00
44988;BME280;35735;52.226;21.254;2023-04-25T21:03:35;99383.28;;;8.58;100.00
44988;BME280;35735;52.226;21.254;2023-04-25T21:08:35;99371.66;;;8.58;100.00
44988;BME280;35735;52.226;21.254;2023-04-25T21:13:36;99379.75;;;8.53;100.00
44988;BME280;35735;52.226;21.254;2023-04-25T21:18:36;99375.28;;;8.52;100.00
44988;BME280;35735;52.226;21.254;2023-04-25T21:23:37;99369.91;;;8.52;100.00
44988;BME280;35735;52.226;21.254;2023-04-25T21:28:37;99372.56;;;8.55;100.00
44988;BME280;35735;52.226;21.254;2023-04-25T21:33:38;99371.66;;;8.56;100.00
44988;BME280;35735;52.226;21.254;2023-04-25T21:38:39;99374.34;;;8.59;100.00
44988;BME280;35735;52.226;21.254;2023-04-25T21:43:39;99372.47;;;8.66;100.00
44988;BME280;35735;52.226;21.254;2023-04-25T21:48:40;99381.44;;;8.65;100.00
44988;BME280;35735;52.226;21.254;2023-04-25T21:53:40;99376.03;;;8.69;100.00
44988;BME280;35735;52.226;21.254;2023-04-25T21:58:41;99367.97;;;8.69;100.00
44988;BME280;35735;52.226;21.254;2023-04-25T22:03:41;99363.47;;;8.70;100.00
44988;BME280;35735;52.226;21.254;2023-04-25T22:08:42;99366.16;;;8.68;100.00
44988;BME280;35735;52.226;21.254;2023-04-25T22:13:42;99374.25;;;8.67;100.00
44988;BME280;35735;52.226;21.254;2023-04-25T22:18:43;99377.81;;;8.70;100.00
44988;BME280;35735;52.226;21.254;2023-04-25T22:23:44;99382.28;;;8.70;100.00
44988;BME280;35735;52.226;21.254;2023-04-25T22:28:45;99374.28;;;8.64;100.00
44988;BME280;35735;52.226;21.254;2023-04-25T22:33:45;99382.38;;;8.62;100.00
44988;BME280;35735;52.226;21.254;2023-04-25T22:38:46;99382.41;;;8.56;100.00
44988;BME280;35735;52.226;21.254;2023-04-25T22:43:47;99376.19;;;8.52;100.00
44988;BME280;35735;52.226;21.254;2023-04-25T22:48:47;99378.00;;;8.50;100.00
44988;BME280;35735;52.226;21.254;2023-04-25T22:53:48;99375.31;;;8.49;100.00
44988;BME280;35735;52.226;21.254;2023-04-25T22:58:48;99382.47;;;8.47;100.00
44988;BME280;35735;52.226;21.254;2023-04-25T23:03:49;99392.34;;;8.40;100.00
44988;BME280;35735;52.226;21.254;2023-04-25T23:08:50;99390.63;;;8.36;100.00
44988;BME280;35735;52.226;21.254;2023-04-25T23:13:50;99402.28;;;8.33;100.00
44988;BME280;35735;52.226;21.254;2023-04-25T23:18:51;99408.59;;;8.26;100.00
44988;BME280;35735;52.226;21.254;2023-04-25T23:23:51;99411.38;;;8.14;100.00
44988;BME280;35735;52.226;21.254;2023-04-25T23:28:52;99419.47;;;8.06;100.00
44988;BME280;35735;52.226;21.254;2023-04-25T23:33:53;99419.53;;;7.97;100.00
44988;BME280;35735;52.226;21.254;2023-04-25T23:38:53;99425.81;;;7.91;100.00
44988;BME280;35735;52.226;21.254;2023-04-25T23:43:54;99429.44;;;7.90;100.00
44988;BME280;35735;52.226;21.254;2023-04-25T23:48:54;99433.03;;;7.85;100.00
44988;BME280;35735;52.226;21.254;2023-04-25T23:53:55;99432.16;;;7.78;100.00
44988;BME280;35735;52.226;21.254;2023-04-25T23:58:55;99430.37;;;7.78;100.00
